Time;durP1;ratioP1;P1;durP2;ratioP2;P2;SDS_P1;SDS_P2;PMS_P1;PMS_P2;Temp;Humidity;BMP_temperature;BMP_pressure;BME280_temperature;BME280_humidity;BME280_pressure;Samples;Min_cycle;Max_cycle;Signal;HPM_P1;HPM_P2
2021/09/08 00:01:57;;;;;;;;;11.75;10.25;;;;;25.47;34.38;100783.09;5089136;27;45484;-86
2021/09/08 00:04:22;;;;;;;;;9.50;8.75;;;;;25.64;34.22;100802.34;5071448;28;45981;-85
2021/09/08 00:06:48;;;;;;;;;12.00;11.25;;;;;25.60;34.55;100790.34;5075995;28;48389;-85
2021/09/08 00:09:13;;;;;;;;;10.25;10.00;;;;;25.61;34.20;100788.50;5078198;28;45785;-86
2021/09/08 00:11:39;;;;;;;;;11.75;11.25;;;;;25.82;34.75;100823.25;5095422;27;45950;-86
2021/09/08 00:14:05;;;;;;;;;10.00;10.00;;;;;25.65;34.52;100789.75;5083397;27;45751;-87
2021/09/08 00:16:30;;;;;;;;;10.75;10.75;;;;;25.59;34.61;100783.34;5084004;28;45799;-86
2021/09/08 00:18:56;;;;;;;;;10.25;10.00;;;;;25.67;34.67;100796.56;5079276;28;47088;-86
2021/09/08 00:21:21;;;;;;;;;13.25;11.50;;;;;25.62;34.48;100780.25;5074817;28;46249;-86
2021/09/08 00:23:47;;;;;;;;;12.25;11.50;;;;;25.74;34.69;100793.91;5084794;28;45620;-86
2021/09/08 00:26:12;;;;;;;;;11.75;10.25;;;;;25.72;34.74;100793.28;5080442;28;47627;-85
2021/09/08 00:28:38;;;;;;;;;12.50;12.00;;;;;25.70;34.32;100782.75;5068695;28;45481;-85
2021/09/08 00:31:03;;;;;;;;;12.50;10.00;;;;;25.45;34.40;100741.38;5085521;28;45738;-86
2021/09/08 00:33:29;;;;;;;;;12.25;10.75;;;;;25.69;34.79;100773.06;5076727;28;45866;-86
2021/09/08 00:35:54;;;;;;;;;11.25;10.75;;;;;25.77;34.64;100780.06;5075185;27;47144;-84
2021/09/08 00:38:20;;;;;;;;;12.75;10.50;;;;;25.64;35.06;100756.72;5079090;28;46033;-86
2021/09/08 00:40:45;;;;;;;;;11.50;10.50;;;;;25.60;34.81;100747.41;5079780;28;45522;-85
2021/09/08 00:43:11;;;;;;;;;13.00;12.00;;;;;25.53;34.78;100737.69;5077853;28;45825;-88
2021/09/08 00:45:36;;;;;;;;;11.75;11.75;;;;;25.54;35.16;100742.00;5081457;27;47702;-85
2021/09/08 00:48:02;;;;;;;;;12.25;12.25;;;;;25.53;34.71;100737.69;5082111;27;46140;-85
2021/09/08 00:50:27;;;;;;;;;10.75;9.75;;;;;25.44;34.83;100727.13;5101620;27;45559;-85
2021/09/08 00:52:53;;;;;;;;;10.25;10.25;;;;;25.46;35.30;100729.63;5080892;28;45737;-85
2021/09/08 00:55:21;;;;;;;;;10.50;10.25;;;;;25.58;34.76;100752.19;5081455;28;47730;-85
2021/09/08 00:57:49;;;;;;;;;12.00;9.00;;;;;25.63;35.04;100770.34;5087558;27;45763;-85
2021/09/08 01:00:14;;;;;;;;;9.50;9.25;;;;;25.25;35.41;100700.25;5089225;27;45538;-87
2021/09/08 01:02:40;;;;;;;;;11.25;10.75;;;;;25.34;34.95;100720.50;5103007;27;45548;-85
2021/09/08 01:05:06;;;;;;;;;9.00;8.25;;;;;25.56;34.93;100756.91;5086268;27;46575;-86
2021/09/08 01:07:32;;;;;;;;;13.00;12.75;;;;;25.39;35.14;100736.81;5086345;27;47527;-85
2021/09/08 01:09:57;;;;;;;;;11.25;10.50;;;;;25.40;35.20;100743.84;5083255;27;45523;-86
2021/09/08 01:12:23;;;;;;;;;13.25;10.25;;;;;25.32;35.25;100739.47;5083221;27;45565;-85
2021/09/08 01:14:48;;;;;;;;;10.50;9.50;;;;;25.11;35.33;100707.41;5082856;27;47370;-86
2021/09/08 01:17:17;;;;;;;;;12.25;11.00;;;;;25.33;35.35;100743.81;5101262;27;45800;-85
2021/09/08 01:19:43;;;;;;;;;11.00;10.00;;;;;25.05;35.18;100695.63;5087791;27;45724;-86
2021/09/08 01:22:08;;;;;;;;;10.00;9.50;;;;;25.20;35.15;100721.50;5110138;27;45573;-85
2021/09/08 01:24:33;;;;;;;;;13.00;12.00;;;;;25.19;35.75;100728.72;5110348;27;48564;-85
2021/09/08 01:26:59;;;;;;;;;9.50;9.50;;;;;25.30;35.39;100748.75;5103673;27;47005;-84
2021/09/08 01:29:25;;;;;;;;;11.00;10.25;;;;;25.25;35.32;100733.28;5103718;27;45547;-84
2021/09/08 01:31:58;;;;;;;;;12.25;11.25;;;;;25.15;35.46;100718.59;5086472;27;45587;-85
2021/09/08 01:34:25;;;;;;;;;13.50;12.25;;;;;25.21;35.59;100734.69;5103972;27;46452;-85
2021/09/08 01:36:51;;;;;;;;;12.50;12.50;;;;;25.16;35.92;100730.94;5106589;27;45513;-85
2021/09/08 01:39:18;;;;;;;;;12.00;11.00;;;;;24.92;35.53;100695.59;5090467;27;45599;-85
2021/09/08 01:41:48;;;;;;;;;11.50;10.75;;;;;25.20;35.70;100732.22;5084946;27;45712;-85
2021/09/08 01:44:24;;;;;;;;;10.25;10.25;;;;;25.19;35.74;100735.94;5084695;27;47815;-87
2021/09/08 01:46:51;;;;;;;;;10.50;9.50;;;;;24.97;35.88;100706.56;5114332;27;45446;-87
2021/09/08 01:49:17;;;;;;;;;14.75;13.75;;;;;25.05;36.18;100710.91;5091679;27;45757;-86
2021/09/08 01:51:42;;;;;;;;;10.25;10.00;;;;;24.88;35.79;100691.69;5101613;27;45613;-88
2021/09/08 01:54:09;;;;;;;;;10.50;10.00;;;;;24.82;35.52;100681.72;5082105;27;48673;-88
2021/09/08 01:56:34;;;;;;;;;12.25;11.75;;;;;24.83;36.04;100678.00;5073129;27;47448;-86
2021/09/08 01:59:00;;;;;;;;;12.00;11.50;;;;;25.04;36.09;100712.78;5091744;27;45747;-87
2021/09/08 02:01:25;;;;;;;;;12.25;11.75;;;;;24.80;36.13;100670.38;5104532;27;45589;-85
2021/09/08 02:03:52;;;;;;;;;10.75;10.75;;;;;24.91;36.08;100691.28;5085911;27;47435;-84
2021/09/08 02:06:25;;;;;;;;;11.50;11.00;;;;;24.77;35.88;100670.78;5088758;27;48137;-87
2021/09/08 02:08:52;;;;;;;;;9.50;9.25;;;;;24.56;36.07;100636.06;5086454;27;45665;-87
2021/09/08 02:11:18;;;;;;;;;11.25;10.50;;;;;24.72;36.41;100670.56;5078863;27;45743;-88
2021/09/08 02:13:43;;;;;;;;;11.50;11.00;;;;;24.63;36.08;100661.00;5076817;27;48799;-88
2021/09/08 02:16:09;;;;;;;;;11.25;11.25;;;;;24.90;36.39;100696.81;5083881;27;47174;-87
2021/09/08 02:18:34;;;;;;;;;11.00;10.00;;;;;24.49;36.79;100637.88;5069353;28;45770;-86
2021/09/08 02:21:00;;;;;;;;;13.25;13.25;;;;;24.72;36.55;100686.63;5100533;27;45385;-87
2021/09/08 02:23:25;;;;;;;;;11.75;10.75;;;;;24.53;36.57;100644.47;5085362;27;48703;-86
2021/09/08 02:25:51;;;;;;;;;13.00;12.00;;;;;24.70;36.62;100677.94;5101848;27;45822;-87
2021/09/08 02:28:20;;;;;;;;;10.75;10.50;;;;;24.54;37.05;100646.97;5083794;27;45571;-86
2021/09/08 02:30:45;;;;;;;;;11.00;10.75;;;;;24.65;36.86;100669.69;5079007;28;45883;-87
2021/09/08 02:33:11;;;;;;;;;13.00;10.25;;;;;24.59;37.19;100667.78;5075823;27;47384;-89
2021/09/08 02:35:36;;;;;;;;;10.75;10.00;;;;;24.72;37.56;100688.47;5066978;28;48700;-86
2021/09/08 02:38:01;;;;;;;;;14.50;12.75;;;;;24.69;37.00;100673.59;5096467;27;45699;-87
2021/09/08 02:40:27;;;;;;;;;14.00;11.00;;;;;24.38;37.03;100631.22;5084497;27;46020;-86
2021/09/08 02:42:52;;;;;;;;;12.75;12.25;;;;;24.38;37.52;100631.22;5098401;27;47416;-88
2021/09/08 02:45:18;;;;;;;;;14.50;11.00;;;;;24.15;37.72;100590.47;5103030;27;46168;-86
2021/09/08 02:47:43;;;;;;;;;11.50;11.00;;;;;24.59;37.93;100676.66;5090256;27;45985;-87
2021/09/08 02:50:09;;;;;;;;;11.25;11.00;;;;;24.47;37.63;100653.31;5086006;28;45552;-85
2021/09/08 02:52:34;;;;;;;;;12.00;11.50;;;;;24.10;37.55;100596.41;5084608;27;47953;-88
2021/09/08 02:55:00;;;;;;;;;13.25;13.00;;;;;24.22;37.87;100627.00;5087442;27;46894;-86
2021/09/08 02:57:25;;;;;;;;;14.50;13.75;;;;;24.19;38.15;100614.00;5080558;27;45872;-87
2021/09/08 02:59:51;;;;;;;;;13.50;13.00;;;;;24.12;38.51;100612.28;5081787;27;45837;-86
2021/09/08 03:02:16;;;;;;;;;11.25;11.00;;;;;24.34;37.97;100659.44;5094422;27;48482;-86
2021/09/08 03:04:41;;;;;;;;;15.25;12.00;;;;;24.29;38.12;100651.16;5063785;28;47304;-86
2021/09/08 03:07:07;;;;;;;;;12.75;11.75;;;;;23.97;38.59;100601.69;5093506;27;45643;-89
2021/09/08 03:09:32;;;;;;;;;12.25;12.25;;;;;24.08;38.35;100613.69;5076605;27;45557;-87
2021/09/08 03:11:58;;;;;;;;;12.50;11.00;;;;;24.03;38.98;100619.63;5085036;27;47530;-88
2021/09/08 03:14:23;;;;;;;;;13.00;12.75;;;;;23.89;38.24;100590.31;5073289;28;47367;-87
2021/09/08 03:16:49;;;;;;;;;14.50;13.25;;;;;24.16;38.64;100640.31;5063393;28;46133;-88
2021/09/08 03:19:14;;;;;;;;;14.00;12.75;;;;;23.84;39.00;100588.22;5075515;28;45374;-87
2021/09/08 03:21:39;;;;;;;;;13.25;12.25;;;;;23.86;38.57;100594.19;5077730;27;45721;-88
2021/09/08 03:24:05;;;;;;;;;13.00;12.00;;;;;23.92;38.82;100612.16;5075154;28;48228;-88
2021/09/08 03:26:30;;;;;;;;;9.50;9.00;;;;;23.99;39.05;100626.41;5074355;28;45980;-88
2021/09/08 03:28:56;;;;;;;;;11.25;11.25;;;;;23.74;39.23;100593.09;5077419;27;46084;-88
2021/09/08 03:31:21;;;;;;;;;11.75;11.00;;;;;23.81;39.32;100608.16;5074730;28;47298;-88
2021/09/08 03:33:46;;;;;;;;;12.50;11.75;;;;;23.68;39.15;100584.00;5077944;27;47267;-87
2021/09/08 03:36:12;;;;;;;;;15.00;13.25;;;;;23.66;39.07;100580.69;5075413;28;45940;-88
2021/09/08 03:38:37;;;;;;;;;13.75;13.25;;;;;23.89;39.38;100612.56;5074102;28;45977;-87
2021/09/08 03:41:02;;;;;;;;;15.00;13.75;;;;;23.93;39.67;100618.31;5072717;28;47177;-83
2021/09/08 03:43:28;;;;;;;;;13.75;12.00;;;;;23.76;39.40;100596.38;5073556;27;46014;-83
2021/09/08 03:45:53;;;;;;;;;13.50;13.00;;;;;23.81;39.79;100607.34;5074546;27;46086;-81
2021/09/08 03:48:19;;;;;;;;;16.00;13.75;;;;;23.84;39.62;100606.97;5074633;28;45598;-83
2021/09/08 03:50:44;;;;;;;;;13.75;13.25;;;;;23.79;39.84;100596.84;5074629;27;46299;-82
2021/09/08 03:53:09;;;;;;;;;14.00;13.00;;;;;23.79;39.84;100598.69;5072687;28;46500;-83
2021/09/08 03:55:35;;;;;;;;;14.75;14.25;;;;;23.74;39.94;100601.13;5073774;28;45687;-84
2021/09/08 03:58:00;;;;;;;;;12.00;11.00;;;;;23.75;39.80;100592.09;5072982;27;45734;-83
2021/09/08 04:00:25;;;;;;;;;14.00;11.75;;;;;23.73;40.02;100599.47;5073631;28;47200;-81
2021/09/08 04:02:51;;;;;;;;;13.25;12.50;;;;;23.68;40.08;100599.22;5074359;28;46977;-84
2021/09/08 04:05:16;;;;;;;;;13.00;12.50;;;;;23.62;40.62;100583.94;5064755;27;45672;-79
2021/09/08 04:07:42;;;;;;;;;11.50;11.00;;;;;23.61;40.96;100583.13;5074052;27;45552;-80
2021/09/08 04:10:08;;;;;;;;;12.00;11.75;;;;;23.47;40.80;100567.16;5077397;27;46592;-79
2021/09/08 04:12:33;;;;;;;;;13.25;12.50;;;;;23.52;40.74;100573.59;5078419;27;45846;-84
2021/09/08 04:14:59;;;;;;;;;15.50;12.75;;;;;23.50;40.83;100572.13;5077168;28;45657;-80
2021/09/08 04:17:24;;;;;;;;;13.75;12.00;;;;;23.49;41.13;100576.63;5076369;27;45746;-80
2021/09/08 04:19:49;;;;;;;;;12.25;12.25;;;;;23.45;41.29;100580.69;5074685;27;45842;-82
2021/09/08 04:22:15;;;;;;;;;12.75;12.00;;;;;23.41;40.86;100574.06;5074185;27;46177;-80
2021/09/08 04:24:40;;;;;;;;;13.00;12.00;;;;;23.35;41.42;100578.34;5075106;27;45698;-85
2021/09/08 04:27:06;;;;;;;;;15.50;14.00;;;;;23.35;41.64;100573.00;5074431;27;45685;-84
2021/09/08 04:29:32;;;;;;;;;13.75;13.75;;;;;23.32;41.01;100561.88;5074030;27;46415;-86
2021/09/08 04:31:57;;;;;;;;;16.75;14.50;;;;;23.31;41.49;100571.75;5073608;27;45786;-83
2021/09/08 04:34:22;;;;;;;;;15.50;14.00;;;;;23.20;41.78;100552.72;5073473;27;45761;-83
2021/09/08 04:36:48;;;;;;;;;15.75;12.75;;;;;23.28;40.97;100566.75;5072668;28;45942;-79
2021/09/08 04:39:13;;;;;;;;;12.50;11.25;;;;;23.20;41.28;100560.72;5074395;27;46275;-82
2021/09/08 04:41:39;;;;;;;;;13.00;13.00;;;;;23.15;41.54;100550.63;5077155;27;45603;-81
2021/09/08 04:44:04;;;;;;;;;15.25;14.00;;;;;23.20;41.73;100566.91;5074294;28;45998;-82
2021/09/08 04:46:30;;;;;;;;;14.25;14.25;;;;;23.09;41.53;100556.72;5072700;28;45797;-83
2021/09/08 04:48:55;;;;;;;;;15.00;13.50;;;;;22.94;42.00;100539.94;5089693;27;47200;-80
2021/09/08 04:51:21;;;;;;;;;18.00;16.00;;;;;22.91;42.08;100534.97;5073587;28;46176;-85
2021/09/08 04:53:47;;;;;;;;;17.25;15.00;;;;;23.12;41.64;100572.38;5074590;27;45614;-81
2021/09/08 04:56:12;;;;;;;;;15.75;14.25;;;;;23.00;41.70;100558.69;5074728;27;45888;-82
2021/09/08 04:58:39;;;;;;;;;16.50;16.00;;;;;23.01;41.71;100559.50;5074826;27;45680;-85
2021/09/08 05:01:05;;;;;;;;;16.25;14.50;;;;;23.00;42.06;100552.50;5084042;27;45693;-83
2021/09/08 05:03:32;;;;;;;;;15.00;14.25;;;;;23.10;42.29;100568.25;5094187;27;46548;-86
2021/09/08 05:05:57;;;;;;;;;15.25;14.25;;;;;23.10;42.49;100571.75;5093027;27;46218;-81
2021/09/08 05:08:23;;;;;;;;;13.00;12.50;;;;;23.07;41.73;100560.59;5093693;27;46215;-83
2021/09/08 05:10:48;;;;;;;;;15.00;14.00;;;;;23.09;42.42;100567.41;5094464;27;45776;-83
2021/09/08 05:13:13;;;;;;;;;16.75;14.75;;;;;23.12;41.85;100571.53;5093562;27;45881;-82
2021/09/08 05:15:39;;;;;;;;;13.50;12.50;;;;;23.07;42.00;100564.09;5089948;27;45786;-83
2021/09/08 05:18:04;;;;;;;;;14.75;12.00;;;;;23.11;42.51;100572.56;5094156;27;45530;-81
2021/09/08 05:20:30;;;;;;;;;19.00;16.75;;;;;23.09;41.99;100577.28;5091668;27;46161;-84
2021/09/08 05:22:55;;;;;;;;;18.75;15.25;;;;;23.10;42.71;100569.09;5086046;27;45708;-80
2021/09/08 05:25:21;;;;;;;;;17.50;17.50;;;;;23.10;42.26;100571.75;5080499;27;45937;-89
2021/09/08 05:27:46;;;;;;;;;17.25;15.75;;;;;23.09;42.42;100567.41;5094513;27;46237;-79
2021/09/08 05:30:12;;;;;;;;;16.50;15.25;;;;;23.12;42.26;100574.22;5094897;27;45688;-79
2021/09/08 05:32:38;;;;;;;;;61.50;47.75;;;;;23.06;42.83;100565.13;5093078;27;45667;-79
2021/09/08 05:35:04;;;;;;;;;25.50;23.50;;;;;23.08;42.30;100565.75;5081802;27;45746;-80
2021/09/08 05:37:29;;;;;;;;;22.50;22.00;;;;;23.11;42.85;100567.22;5089113;27;45722;-86
2021/09/08 05:39:55;;;;;;;;;15.50;13.50;;;;;23.12;42.57;100566.19;5089973;27;48266;-84
2021/09/08 05:42:20;;;;;;;;;15.00;14.00;;;;;23.12;42.64;100564.34;5093488;27;45722;-81
2021/09/08 05:44:46;;;;;;;;;17.50;15.25;;;;;23.11;42.49;100561.84;5092203;27;45960;-81
2021/09/08 05:47:11;;;;;;;;;20.75;19.00;;;;;22.88;43.03;100519.31;5092264;27;46341;-80
2021/09/08 05:49:36;;;;;;;;;17.25;15.75;;;;;23.10;42.41;100563.72;5093818;27;45719;-81
2021/09/08 05:52:03;;;;;;;;;16.00;15.25;;;;;23.00;42.41;100548.00;5093525;27;46096;-82
2021/09/08 05:54:28;;;;;;;;;19.50;16.25;;;;;23.05;43.16;100557.31;5089894;27;45798;-80
2021/09/08 05:56:54;;;;;;;;;16.75;15.50;;;;;23.09;43.07;100561.25;5083779;27;46716;-84
2021/09/08 05:59:20;;;;;;;;;16.75;16.00;;;;;23.04;43.24;100552.97;5094953;27;45663;-80
2021/09/08 06:01:45;;;;;;;;;16.25;15.00;;;;;23.05;43.10;100557.31;5073421;28;45948;-82
2021/09/08 06:04:11;;;;;;;;;18.50;17.75;;;;;23.07;42.79;100561.44;5067705;27;45767;-79
2021/09/08 06:06:36;;;;;;;;;17.00;14.75;;;;;23.05;43.23;100560.78;5072269;27;45880;-80
2021/09/08 06:09:02;;;;;;;;;18.25;15.25;;;;;23.06;43.22;100551.75;5072311;28;45608;-81
2021/09/08 06:11:27;;;;;;;;;15.25;14.00;;;;;23.05;43.28;100552.75;5072253;27;45643;-78
2021/09/08 06:13:55;;;;;;;;;15.75;15.50;;;;;22.97;43.56;100542.22;5072072;27;45755;-82
2021/09/08 06:16:22;;;;;;;;;18.00;15.00;;;;;23.02;43.11;100562.00;5071752;28;46484;-79
2021/09/08 06:18:47;;;;;;;;;15.75;14.75;;;;;23.00;43.63;100558.69;5071474;27;45994;-79
2021/09/08 06:21:13;;;;;;;;;18.00;17.00;;;;;23.00;43.72;100556.00;5072308;27;45733;-80
2021/09/08 06:23:38;;;;;;;;;18.00;17.75;;;;;23.00;43.90;100558.69;5071748;27;46198;-79
2021/09/08 06:26:03;;;;;;;;;20.50;19.00;;;;;22.97;43.21;100559.06;5070571;27;45687;-78
2021/09/08 06:28:30;;;;;;;;;18.00;17.50;;;;;22.95;43.24;100549.59;5072043;28;46299;-79
2021/09/08 06:30:55;;;;;;;;;18.25;16.25;;;;;22.99;43.68;100559.72;5072086;27;45823;-79
2021/09/08 06:33:21;;;;;;;;;18.75;15.00;;;;;22.91;43.29;100542.97;5070438;28;45596;-79
2021/09/08 06:35:46;;;;;;;;;17.50;15.50;;;;;23.00;43.32;100563.19;5070076;28;46929;-79
2021/09/08 06:38:12;;;;;;;;;20.25;17.25;;;;;23.01;43.76;100554.16;5071205;27;46731;-79
2021/09/08 06:40:37;;;;;;;;;18.00;16.50;;;;;22.95;43.41;100541.56;5070074;28;45686;-80
2021/09/08 06:43:02;;;;;;;;;17.00;16.00;;;;;22.96;43.74;100538.72;5059150;27;45819;-78
2021/09/08 06:45:28;;;;;;;;;16.25;15.25;;;;;22.98;43.43;100542.03;5069058;28;47807;-81
2021/09/08 06:47:53;;;;;;;;;17.00;15.75;;;;;23.04;43.38;100543.13;5066990;28;48261;-80
2021/09/08 06:50:19;;;;;;;;;15.00;14.75;;;;;23.04;44.07;100544.97;5070648;27;45871;-80
2021/09/08 06:52:44;;;;;;;;;17.00;16.50;;;;;23.08;43.48;100544.38;5069753;27;45826;-79
2021/09/08 06:55:10;;;;;;;;;17.50;16.25;;;;;23.07;43.96;100542.72;5071459;28;45784;-78
2021/09/08 06:57:35;;;;;;;;;15.50;15.25;;;;;23.03;44.25;100528.09;5073479;27;45639;-77
2021/09/08 07:00:01;;;;;;;;;18.75;18.00;;;;;23.12;43.70;100540.28;5074953;27;45576;-79
2021/09/08 07:02:26;;;;;;;;;16.50;14.50;;;;;23.13;43.68;100539.28;5094848;27;45672;-80
2021/09/08 07:04:52;;;;;;;;;16.50;15.25;;;;;23.16;44.29;100544.22;5095005;27;46669;-78
2021/09/08 07:07:20;;;;;;;;;17.75;16.75;;;;;23.18;44.31;100536.03;5095818;27;46221;-78
2021/09/08 07:09:45;;;;;;;;;17.75;16.50;;;;;23.20;43.95;100534.00;5094730;27;45703;-79
2021/09/08 07:12:11;;;;;;;;;18.00;17.00;;;;;23.21;43.81;100531.09;5095202;27;45726;-80
2021/09/08 07:14:36;;;;;;;;;15.50;14.25;;;;;23.22;43.92;100526.59;5095264;27;46516;-78
2021/09/08 07:17:01;;;;;;;;;17.50;16.50;;;;;23.13;43.92;100507.19;5094748;27;46142;-78
2021/09/08 07:19:27;;;;;;;;;17.00;16.25;;;;;23.20;44.02;100518.78;5094753;27;46433;-78
2021/09/08 07:21:52;;;;;;;;;16.75;15.75;;;;;23.27;44.03;100521.50;5095146;27;45676;-78
2021/09/08 07:24:17;;;;;;;;;18.75;16.75;;;;;23.29;43.92;100524.81;5094161;27;46292;-78
2021/09/08 07:26:44;;;;;;;;;19.25;17.50;;;;;23.31;44.71;100526.28;5094783;27;46233;-79
2021/09/08 07:29:09;;;;;;;;;17.25;15.75;;;;;23.32;44.77;100530.59;5072900;28;45813;-78
2021/09/08 07:31:35;;;;;;;;;16.50;16.25;;;;;23.33;44.49;100532.25;5089884;27;45949;-78
2021/09/08 07:34:00;;;;;;;;;19.00;17.50;;;;;23.35;44.18;100524.88;5094743;27;46396;-80
2021/09/08 07:36:26;;;;;;;;;20.25;18.25;;;;;23.30;44.72;100516.59;5095895;27;46230;-78
2021/09/08 07:38:52;;;;;;;;;18.75;17.25;;;;;23.36;44.95;100521.19;5095706;27;45734;-79
2021/09/08 07:41:19;;;;;;;;;19.00;18.50;;;;;23.35;44.99;100514.19;5095058;27;45962;-79
2021/09/08 07:43:46;;;;;;;;;19.75;16.00;;;;;23.33;44.35;100508.19;5094614;27;46678;-78
2021/09/08 07:46:12;;;;;;;;;19.00;16.25;;;;;23.34;44.70;100517.03;5095038;27;47026;-77
2021/09/08 07:48:39;;;;;;;;;19.50;18.50;;;;;23.30;44.91;100511.25;5094317;27;45722;-78
2021/09/08 07:51:04;;;;;;;;;19.25;17.75;;;;;23.32;45.06;100505.72;5078508;27;45896;-78
2021/09/08 07:53:30;;;;;;;;;16.75;16.50;;;;;23.36;44.68;100513.16;5094422;27;46196;-81
2021/09/08 07:55:55;;;;;;;;;25.00;23.00;;;;;23.34;44.94;100503.66;5094125;27;45790;-80
2021/09/08 07:58:20;;;;;;;;;21.75;18.75;;;;;23.40;44.53;100508.22;5093808;27;45678;-79
2021/09/08 08:00:46;;;;;;;;;22.25;17.75;;;;;23.39;44.82;100504.72;5094586;27;45786;-83
2021/09/08 08:03:11;;;;;;;;;21.25;18.50;;;;;23.41;45.20;100502.69;5094231;27;46082;-79
2021/09/08 08:05:36;;;;;;;;;17.50;16.50;;;;;23.45;44.70;100508.47;5094279;27;46209;-78
2021/09/08 08:08:03;;;;;;;;;19.25;17.50;;;;;23.41;45.24;100499.19;5093201;27;45916;-78
2021/09/08 08:10:29;;;;;;;;;22.00;17.75;;;;;23.47;44.71;100505.66;5094868;27;45712;-76
2021/09/08 08:12:54;;;;;;;;;18.75;17.50;;;;;23.52;45.25;100500.53;5093514;27;46066;-77
2021/09/08 08:15:20;;;;;;;;;19.25;18.25;;;;;23.54;45.10;100506.50;5093649;27;45795;-78
2021/09/08 08:17:46;;;;;;;;;19.50;19.00;;;;;23.57;45.55;100508.81;5094871;27;45671;-79
2021/09/08 08:20:12;;;;;;;;;19.00;17.75;;;;;23.52;45.40;100495.19;5096860;27;45669;-80
2021/09/08 08:22:40;;;;;;;;;19.25;18.25;;;;;23.61;45.25;100510.88;5097347;27;46512;-80
2021/09/08 08:25:08;;;;;;;;;19.00;18.25;;;;;23.64;45.34;100510.50;5097713;27;46325;-77
2021/09/08 08:27:34;;;;;;;;;20.25;18.75;;;;;23.58;45.26;100495.25;5097425;27;46083;-80
2021/09/08 08:30:00;;;;;;;;;17.25;17.25;;;;;23.67;45.04;100511.94;5095467;27;45604;-77
2021/09/08 08:32:25;;;;;;;;;17.50;17.50;;;;;23.68;45.28;100503.75;5093295;27;47088;-79
2021/09/08 08:34:52;;;;;;;;;19.00;16.50;;;;;23.74;45.19;100504.81;5093679;27;45717;-78
2021/09/08 08:37:17;;;;;;;;;18.75;16.00;;;;;23.65;45.23;100482.72;5093267;27;46230;-81
2021/09/08 08:39:43;;;;;;;;;19.75;17.50;;;;;23.66;45.14;100478.19;5093101;27;46474;-81
2021/09/08 08:42:13;;;;;;;;;18.75;18.50;;;;;23.80;45.15;100496.81;5093563;27;45729;-80
2021/09/08 08:44:39;;;;;;;;;20.25;19.00;;;;;23.77;45.12;100488.34;5093917;27;45721;-82
2021/09/08 08:47:05;;;;;;;;;19.00;18.75;;;;;23.89;45.41;100492.13;5093433;27;45529;-77
2021/09/08 08:49:31;;;;;;;;;20.00;17.25;;;;;23.86;45.11;100481.00;5093948;27;45786;-80
2021/09/08 08:51:57;;;;;;;;;21.50;18.50;;;;;23.96;45.60;100486.81;5093235;27;47598;-78
2021/09/08 08:54:22;;;;;;;;;20.25;18.25;;;;;23.91;44.97;100463.31;5093157;27;46718;-78
2021/09/08 08:56:47;;;;;;;;;18.25;17.25;;;;;24.04;45.64;100483.94;5092369;27;45913;-76
2021/09/08 08:59:13;;;;;;;;;21.00;18.25;;;;;24.00;45.35;100467.47;5093726;27;45541;-78
2021/09/08 09:01:40;;;;;;;;;19.25;18.25;;;;;24.10;45.37;100483.97;5085907;27;48488;-79
2021/09/08 09:04:11;;;;;;;;;22.75;16.00;;;;;24.13;45.76;100483.56;5082556;27;46083;-77
2021/09/08 09:06:40;;;;;;;;;19.25;18.50;;;;;24.12;45.73;100465.03;5081259;27;45692;-79
2021/09/08 09:09:12;;;;;;;;;16.00;14.75;;;;;24.16;45.70;100467.09;5093605;27;45594;-81
2021/09/08 09:11:40;;;;;;;;;18.75;17.00;;;;;24.18;45.79;100467.75;5093342;27;46920;-79
2021/09/08 09:14:08;;;;;;;;;18.75;17.50;;;;;24.27;45.48;100460.38;5092781;27;47072;-80
2021/09/08 09:16:39;;;;;;;;;16.50;15.00;;;;;24.28;45.26;100454.00;5093273;27;45671;-82
2021/09/08 09:19:06;;;;;;;;;16.75;15.50;;;;;24.35;45.67;100462.03;5075881;27;45838;-79
2021/09/08 09:21:32;;;;;;;;;19.00;16.25;;;;;24.35;45.63;100448.63;5083914;27;45720;-79
2021/09/08 09:23:59;;;;;;;;;17.00;17.00;;;;;24.42;45.68;100458.34;5092871;27;45726;-79
2021/09/08 09:26:28;;;;;;;;;20.00;19.75;;;;;24.47;45.31;100465.78;5091976;27;45772;-80
2021/09/08 09:29:03;;;;;;;;;17.00;16.00;;;;;24.51;45.72;100462.47;5092407;27;45520;-79
2021/09/08 09:31:28;;;;;;;;;19.50;18.75;;;;;24.56;45.49;100465.38;5092953;27;46656;-80
2021/09/08 09:33:55;;;;;;;;;18.00;17.50;;;;;24.60;45.27;100466.66;5092062;27;45797;-79
2021/09/08 09:36:27;;;;;;;;;18.50;17.75;;;;;24.65;45.49;100461.50;5081569;27;46087;-79
2021/09/08 09:38:54;;;;;;;;;17.75;17.75;;;;;24.68;45.65;100460.25;5092318;27;45532;-79
2021/09/08 09:41:28;;;;;;;;;21.75;16.50;;;;;24.72;45.50;100453.47;5092531;27;46307;-79
2021/09/08 09:43:54;;;;;;;;;19.00;18.00;;;;;24.72;45.54;100453.47;5092526;27;46045;-79
2021/09/08 09:46:20;;;;;;;;;19.50;19.00;;;;;24.80;45.65;100455.13;5081314;27;46003;-80
2021/09/08 09:48:48;;;;;;;;;19.00;17.75;;;;;24.74;45.44;100440.69;5092817;27;45767;-79
2021/09/08 09:51:14;;;;;;;;;20.25;18.25;;;;;24.83;45.56;100450.16;5093380;27;46555;-80
2021/09/08 09:53:41;;;;;;;;;21.00;19.00;;;;;24.90;45.87;100452.88;5093223;27;46767;-81
2021/09/08 09:56:07;;;;;;;;;16.00;15.25;;;;;24.93;45.75;100449.81;5093625;27;45755;-79
2021/09/08 09:58:36;;;;;;;;;19.00;19.00;;;;;25.02;45.53;100454.75;5094865;27;46678;-80
2021/09/08 10:01:04;;;;;;;;;19.50;18.25;;;;;25.05;45.41;100457.00;5093732;27;45736;-81
2021/09/08 10:03:29;;;;;;;;;21.50;18.25;;;;;25.10;45.54;100444.84;5090198;27;46945;-80
2021/09/08 10:05:55;;;;;;;;;20.50;19.00;;;;;25.21;45.39;100452.28;5088829;27;45718;-79
2021/09/08 10:08:24;;;;;;;;;20.00;18.75;;;;;25.24;45.52;100452.66;5095326;27;45757;-79
2021/09/08 10:10:53;;;;;;;;;19.75;18.00;;;;;25.31;45.35;100458.03;5096205;27;45658;-80
2021/09/08 10:13:34;;;;;;;;;19.00;17.00;;;;;25.30;45.45;100453.69;5098081;27;46180;-80
2021/09/08 10:16:04;;;;;;;;;18.25;17.75;;;;;25.38;45.65;100451.59;5097950;27;45724;-85
2021/09/08 10:18:34;;;;;;;;;20.25;18.75;;;;;25.46;45.51;100445.19;5096864;27;45679;-82
2021/09/08 10:20:59;;;;;;;;;18.75;17.00;;;;;25.50;45.34;100441.88;5098218;27;45722;-80
2021/09/08 10:23:25;;;;;;;;;21.75;20.75;;;;;25.49;45.52;100434.88;5095030;27;46640;-79
2021/09/08 10:25:51;;;;;;;;;16.75;16.75;;;;;25.55;45.04;100433.19;5094853;27;45934;-80
2021/09/08 10:28:19;;;;;;;;;18.25;17.75;;;;;25.62;45.14;100430.53;5095584;27;45572;-82
2021/09/08 10:30:46;;;;;;;;;24.50;21.00;;;;;25.70;45.12;100436.47;5096126;27;45677;-82
2021/09/08 10:33:13;;;;;;;;;17.25;17.00;;;;;25.74;45.40;100424.31;5096976;27;45607;-81
2021/09/08 10:35:40;;;;;;;;;18.00;16.25;;;;;25.80;44.96;100428.00;5097276;27;45841;-78
2021/09/08 10:38:12;;;;;;;;;17.25;17.25;;;;;25.84;45.37;100426.53;5097752;27;46063;-79
2021/09/08 10:40:38;;;;;;;;;15.25;15.25;;;;;25.88;45.42;100422.38;5090746;27;45620;-82
2021/09/08 10:43:04;;;;;;;;;21.00;17.25;;;;;25.88;45.41;100417.84;5096969;27;45588;-87
2021/09/08 10:45:32;;;;;;;;;21.25;20.00;;;;;25.97;44.94;100420.25;5096250;27;46095;-83
2021/09/08 10:47:59;;;;;;;;;19.25;18.25;;;;;25.86;45.14;100401.09;5079231;27;46252;-84
2021/09/08 10:50:34;;;;;;;;;20.00;17.50;;;;;26.05;45.50;100414.66;5096552;27;45846;-85
2021/09/08 10:53:01;;;;;;;;;20.50;19.75;;;;;25.99;45.09;100412.81;5099355;27;45583;-87
2021/09/08 10:55:26;;;;;;;;;21.25;18.00;;;;;25.96;45.25;100397.97;5078895;27;46144;-85
2021/09/08 10:57:53;;;;;;;;;19.00;18.75;;;;;25.97;44.93;100388.03;5096673;27;45530;-84
2021/09/08 11:00:35;;;;;;;;;21.00;20.00;;;;;26.22;44.86;100405.94;5095634;27;45634;-85
2021/09/08 11:03:00;;;;;;;;;17.00;16.00;;;;;26.26;44.58;100409.00;5093627;27;47950;-84
2021/09/08 11:05:26;;;;;;;;;18.25;17.00;;;;;26.11;44.63;100379.72;5069905;27;45753;-85